Time;durP1;ratioP1;P1;durP2;ratioP2;P2;SDS_P1;SDS_P2;PMS_P1;PMS_P2;Temp;Humidity;BMP_temperature;BMP_pressure;BME280_temperature;BME280_humidity;BME280_pressure;Samples;Min_cycle;Max_cycle;Signal;HPM_P1;HPM_P2
2021/10/18 00:01:16;;;;;;;14.30;8.55;;;;;;;7.71;84.16;102001.16;5014424;28;20506;-75
2021/10/18 00:03:41;;;;;;;15.45;9.50;;;;;;;7.65;84.44;101999.00;5006851;28;20487;-75
2021/10/18 00:06:07;;;;;;;15.13;8.80;;;;;;;7.59;84.24;102000.25;5021103;28;20037;-75
2021/10/18 00:08:32;;;;;;;13.57;8.18;;;;;;;7.56;84.17;102003.03;5008730;28;20510;-75
2021/10/18 00:10:58;;;;;;;13.70;8.32;;;;;;;7.49;84.43;102006.97;5014407;28;20040;-75
2021/10/18 00:13:23;;;;;;;15.88;9.32;;;;;;;7.48;84.46;101994.19;5011258;28;20037;-75
2021/10/18 00:15:49;;;;;;;17.95;9.15;;;;;;;7.46;84.54;101993.47;5014844;28;20041;-75
2021/10/18 00:18:15;;;;;;;14.93;9.27;;;;;;;7.43;84.40;101993.69;5011628;28;20026;-75
2021/10/18 00:20:41;;;;;;;18.33;9.35;;;;;;;7.43;84.42;101993.69;5028131;28;20044;-75
2021/10/18 00:23:06;;;;;;;15.00;9.18;;;;;;;7.39;84.40;101988.72;5016559;28;20017;-75
2021/10/18 00:25:32;;;;;;;17.48;9.32;;;;;;;7.36;84.06;101994.09;5020973;28;20491;-75
2021/10/18 00:27:57;;;;;;;15.95;8.45;;;;;;;7.31;84.41;101996.19;5001477;28;20483;-75
2021/10/18 00:30:23;;;;;;;15.65;9.00;;;;;;;7.28;84.47;101991.22;5005907;28;20037;-75
2021/10/18 00:32:48;;;;;;;21.08;9.20;;;;;;;7.28;84.05;101996.38;5006661;28;20046;-75
2021/10/18 00:35:14;;;;;;;17.17;8.50;;;;;;;7.20;84.40;102006.41;5010021;28;20035;-75
2021/10/18 00:37:40;;;;;;;14.45;9.05;;;;;;;7.14;84.69;102007.66;5009962;28;20034;-75
2021/10/18 00:40:07;;;;;;;15.18;8.77;;;;;;;7.08;84.81;102008.03;5002570;28;20046;-75
2021/10/18 00:42:33;;;;;;;21.13;9.15;;;;;;;7.02;84.75;102003.31;5016070;28;20466;-74
2021/10/18 00:44:58;;;;;;;16.05;8.50;;;;;;;6.98;84.76;102007.03;4991421;28;20064;-75
2021/10/18 00:47:24;;;;;;;14.82;8.35;;;;;;;6.93;84.75;101999.63;5011154;28;20040;-75
2021/10/18 00:49:50;;;;;;;11.77;8.02;;;;;;;6.91;85.08;101998.06;5013853;28;20055;-75
2021/10/18 00:52:20;;;;;;;19.83;8.98;;;;;;;6.87;84.95;102000.00;5010199;28;20052;-75
2021/10/18 00:54:47;;;;;;;19.33;9.02;;;;;;;6.85;84.83;101999.28;5005650;28;20066;-75
2021/10/18 00:57:16;;;;;;;16.08;9.27;;;;;;;6.83;84.85;101996.81;5011388;28;20085;-75
2021/10/18 00:59:42;;;;;;;16.55;8.52;;;;;;;6.79;84.78;101997.94;5009519;28;20043;-75
2021/10/18 01:02:08;;;;;;;21.92;9.20;;;;;;;6.76;84.62;101995.59;5011249;28;20030;-75
2021/10/18 01:04:34;;;;;;;19.17;9.20;;;;;;;6.74;84.71;102005.19;5010587;28;20031;-75
2021/10/18 01:06:59;;;;;;;16.05;9.20;;;;;;;6.73;84.71;102006.09;5015184;28;20116;-75
2021/10/18 01:09:25;;;;;;;14.57;9.35;;;;;;;6.69;84.86;101998.69;5007744;28;20076;-75
2021/10/18 01:11:51;;;;;;;14.27;9.27;;;;;;;6.66;84.62;102004.84;5011027;28;20046;-76
2021/10/18 01:14:16;;;;;;;17.20;9.40;;;;;;;6.57;84.51;102002.84;5009444;28;20047;-75
2021/10/18 01:16:42;;;;;;;16.08;8.57;;;;;;;6.53;84.98;102022.03;5006422;28;20041;-75
2021/10/18 01:19:16;;;;;;;18.60;8.90;;;;;;;6.50;85.25;102017.91;4989274;28;20242;-75
2021/10/18 01:21:43;;;;;;;18.30;8.77;;;;;;;6.48;84.88;102021.50;5021340;28;20353;-75
2021/10/18 01:24:08;;;;;;;15.40;9.77;;;;;;;6.42;84.86;102014.97;5014171;28;20246;-76
2021/10/18 01:26:34;;;;;;;17.95;9.75;;;;;;;6.38;84.70;102018.69;4988651;28;20487;-75
2021/10/18 01:29:00;;;;;;;16.17;9.10;;;;;;;6.36;85.08;102026.50;5003644;28;20029;-75
2021/10/18 01:31:25;;;;;;;18.58;9.07;;;;;;;6.38;84.81;102022.09;4989522;28;20041;-75
2021/10/18 01:33:51;;;;;;;15.68;9.68;;;;;;;6.37;85.02;102028.19;5010562;28;20068;-75
2021/10/18 01:36:18;;;;;;;16.05;8.82;;;;;;;6.35;84.54;102024.06;5009786;28;20427;-75
2021/10/18 01:38:43;;;;;;;18.17;9.70;;;;;;;6.34;84.79;102027.53;5002078;28;20033;-75
2021/10/18 01:41:09;;;;;;;17.45;9.65;;;;;;;6.30;84.59;102023.53;5005857;28;20041;-75
2021/10/18 01:43:34;;;;;;;19.38;10.50;;;;;;;6.26;84.89;102022.06;5011680;28;20120;-75
2021/10/18 01:46:00;;;;;;;17.70;10.00;;;;;;;6.22;84.43;102024.00;5012100;28;20034;-76
2021/10/18 01:48:25;;;;;;;18.77;9.98;;;;;;;6.17;84.75;102023.47;5007066;28;20034;-75
2021/10/18 01:50:51;;;;;;;20.75;9.30;;;;;;;6.13;84.86;102025.41;5011036;28;20044;-75
2021/10/18 01:53:17;;;;;;;20.88;10.07;;;;;;;6.10;84.71;102030.75;5014501;28;20041;-76
2021/10/18 01:55:42;;;;;;;16.83;10.88;;;;;;;6.09;84.47;102029.09;4995172;28;20031;-75
2021/10/18 01:58:08;;;;;;;22.60;11.23;;;;;;;6.06;85.12;102026.72;5007843;28;20096;-75
2021/10/18 02:00:34;;;;;;;19.70;10.85;;;;;;;6.06;85.30;102023.31;5026014;28;20045;-75
2021/10/18 02:03:00;;;;;;;18.48;10.68;;;;;;;6.06;85.82;102016.41;5015347;28;20029;-75
2021/10/18 02:05:25;;;;;;;19.20;11.57;;;;;;;6.07;86.02;102017.25;5014335;28;20069;-75
2021/10/18 02:07:51;;;;;;;16.27;10.15;;;;;;;6.07;86.20;102020.66;5009393;28;20034;-76
2021/10/18 02:10:17;;;;;;;21.05;10.75;;;;;;;6.04;86.17;102020.84;5010888;28;20037;-76
2021/10/18 02:12:42;;;;;;;15.85;10.05;;;;;;;6.04;85.98;102015.69;5026283;28;20390;-76
2021/10/18 02:15:10;;;;;;;20.10;10.63;;;;;;;6.05;86.33;102017.34;5011805;28;20036;-76
2021/10/18 02:17:35;;;;;;;18.77;11.13;;;;;;;6.04;86.15;102020.84;5011381;28;20030;-75
2021/10/18 02:20:02;;;;;;;20.10;11.93;;;;;;;6.02;86.24;102013.19;5008123;28;20418;-75
2021/10/18 02:22:28;;;;;;;21.10;10.23;;;;;;;6.00;86.40;102016.81;5005466;28;20037;-76
2021/10/18 02:24:56;;;;;;;19.23;10.93;;;;;;;6.00;86.64;102017.63;5007628;28;20044;-76
2021/10/18 02:27:21;;;;;;;19.70;10.77;;;;;;;5.99;86.50;102013.41;5010335;28;20041;-76
2021/10/18 02:29:47;;;;;;;20.10;12.18;;;;;;;5.99;86.12;102016.00;5007303;28;20030;-76
2021/10/18 02:32:12;;;;;;;18.70;11.27;;;;;;;5.96;86.27;102010.19;5014724;28;20057;-76
2021/10/18 02:34:38;;;;;;;27.65;13.32;;;;;;;5.96;86.64;102013.59;5006983;28;20034;-75
2021/10/18 02:37:03;;;;;;;24.17;15.38;;;;;;;6.08;87.03;102006.84;5012474;28;20030;-75
2021/10/18 02:39:29;;;;;;;28.58;15.38;;;;;;;6.01;87.98;102003.84;5010160;28;20034;-74
2021/10/18 02:41:54;;;;;;;30.77;15.82;;;;;;;5.98;87.72;102005.78;5014585;28;20034;-76
2021/10/18 02:44:20;;;;;;;23.88;13.88;;;;;;;5.88;88.18;102014.94;5015587;28;20122;-75
2021/10/18 02:46:45;;;;;;;26.40;14.07;;;;;;;5.83;88.68;102020.41;4991724;28;20034;-76
2021/10/18 02:49:11;;;;;;;22.48;13.15;;;;;;;5.80;88.86;102012.84;5014585;28;20037;-76
2021/10/18 02:51:37;;;;;;;20.55;12.70;;;;;;;5.83;88.88;102010.09;5014625;28;20037;-75
2021/10/18 02:54:05;;;;;;;23.95;12.82;;;;;;;5.83;88.74;102002.38;5031228;28;20136;-75
2021/10/18 02:56:30;;;;;;;18.58;11.50;;;;;;;5.84;89.07;102006.63;5015409;28;20026;-75
2021/10/18 02:58:56;;;;;;;22.73;12.63;;;;;;;5.82;88.69;102006.72;5010645;28;20553;-76
2021/10/18 03:01:22;;;;;;;18.05;10.93;;;;;;;5.75;88.67;102009.75;5012655;28;20034;-77
2021/10/18 03:03:47;;;;;;;20.00;11.32;;;;;;;5.74;89.08;102020.97;5008359;28;20044;-76
2021/10/18 03:06:13;;;;;;;20.92;11.45;;;;;;;5.72;89.03;102010.75;5024348;28;20034;-76
2021/10/18 03:08:39;;;;;;;19.48;10.73;;;;;;;5.70;89.25;102007.47;5023569;28;20041;-75
2021/10/18 03:11:04;;;;;;;16.08;10.27;;;;;;;5.69;88.91;102005.81;5011928;28;20644;-76
2021/10/18 03:13:30;;;;;;;18.45;10.40;;;;;;;5.66;88.77;102006.00;5018031;28;20032;-76
2021/10/18 03:15:55;;;;;;;20.65;11.50;;;;;;;5.72;87.97;102004.78;5017227;28;20416;-76
2021/10/18 03:18:21;;;;;;;21.90;11.05;;;;;;;5.72;87.83;102002.22;5010198;28;20479;-76
2021/10/18 03:20:46;;;;;;;24.83;11.38;;;;;;;5.72;88.28;102002.22;5008774;28;20034;-76
2021/10/18 03:23:12;;;;;;;21.33;11.48;;;;;;;5.65;88.20;102005.19;5008157;28;20465;-76
2021/10/18 03:25:37;;;;;;;20.25;10.82;;;;;;;5.56;88.53;102013.47;5012482;28;20304;-76
2021/10/18 03:28:07;;;;;;;22.00;12.35;;;;;;;5.53;88.88;102008.50;5006955;28;20112;-76
2021/10/18 03:30:32;;;;;;;20.92;11.15;;;;;;;5.52;89.49;101998.28;4991694;28;20129;-76
2021/10/18 03:32:58;;;;;;;18.60;11.38;;;;;;;5.50;89.01;102006.13;5003025;28;20044;-76
2021/10/18 03:35:25;;;;;;;22.60;12.00;;;;;;;5.51;88.69;102009.53;5006338;28;20286;-76
2021/10/18 03:37:51;;;;;;;19.05;11.50;;;;;;;5.42;88.88;102000.59;5028602;28;20041;-76
2021/10/18 03:40:21;;;;;;;20.02;10.90;;;;;;;5.40;89.15;102005.84;5006952;28;20431;-76
2021/10/18 03:42:46;;;;;;;19.50;11.55;;;;;;;5.38;89.31;101999.97;5009848;28;20044;-76
2021/10/18 03:45:13;;;;;;;23.80;12.07;;;;;;;5.35;88.87;102000.16;5004055;28;20041;-76
2021/10/18 03:47:39;;;;;;;17.83;10.93;;;;;;;5.36;89.22;102003.56;5011292;28;20041;-76
2021/10/18 03:50:06;;;;;;;20.75;11.23;;;;;;;5.32;88.98;102005.47;5013028;28;20437;-76
2021/10/18 03:52:32;;;;;;;19.20;10.77;;;;;;;5.28;88.98;102011.72;5014885;28;20060;-76
2021/10/18 03:54:58;;;;;;;18.83;10.90;;;;;;;5.29;89.18;102015.13;5013797;28;20542;-76
2021/10/18 03:57:24;;;;;;;19.75;11.15;;;;;;;5.29;88.88;102015.13;5010276;28;20033;-76
2021/10/18 03:59:49;;;;;;;16.85;10.90;;;;;;;5.25;89.06;102012.75;4992187;28;20034;-76
2021/10/18 04:02:15;;;;;;;21.83;11.88;;;;;;;5.23;88.41;102013.75;5008504;28;20065;-76
2021/10/18 04:04:41;;;;;;;24.35;12.68;;;;;;;5.24;88.23;102017.97;4992489;28;20037;-76
2021/10/18 04:07:06;;;;;;;24.88;12.32;;;;;;;5.15;88.57;102014.19;5009968;28;20036;-76
2021/10/18 04:09:33;;;;;;;23.33;12.60;;;;;;;5.18;88.56;102019.19;5009267;28;20387;-76
2021/10/18 04:11:58;;;;;;;19.15;12.60;;;;;;;5.16;88.57;102020.16;5011669;28;20044;-76
2021/10/18 04:14:24;;;;;;;24.40;13.98;;;;;;;5.14;89.36;102025.41;5010899;28;20041;-76
2021/10/18 04:16:49;;;;;;;26.85;13.85;;;;;;;5.12;89.01;102019.50;5009655;28;20038;-76
2021/10/18 04:19:15;;;;;;;26.33;14.10;;;;;;;5.23;87.64;102019.72;5008533;28;20034;-76
2021/10/18 04:21:40;;;;;;;30.73;15.18;;;;;;;5.20;88.88;102019.09;5013673;28;20025;-76
2021/10/18 04:24:06;;;;;;;36.28;15.75;;;;;;;5.17;88.63;102026.97;5012668;28;20478;-76
2021/10/18 04:26:32;;;;;;;31.50;16.25;;;;;;;5.12;89.06;102028.97;5020368;28;20037;-76
2021/10/18 04:28:57;;;;;;;32.33;16.00;;;;;;;5.12;89.13;102026.41;5008258;28;20037;-77
2021/10/18 04:31:26;;;;;;;28.27;14.73;;;;;;;5.09;89.48;102026.59;5003891;28;20033;-77
2021/10/18 04:33:51;;;;;;;25.60;14.75;;;;;;;5.16;89.62;102033.88;4997489;28;20395;-76
2021/10/18 04:36:17;;;;;;;28.05;16.63;;;;;;;5.14;89.43;102027.16;5009969;28;20049;-76
2021/10/18 04:38:42;;;;;;;28.23;16.05;;;;;;;5.20;90.08;102026.81;4990091;28;20049;-76
2021/10/18 04:41:08;;;;;;;25.40;15.57;;;;;;;5.11;89.68;102027.34;5012335;28;20511;-76
2021/10/18 04:43:33;;;;;;;25.35;14.98;;;;;;;5.15;90.18;102031.38;5010392;28;20025;-76
2021/10/18 04:45:59;;;;;;;27.73;14.55;;;;;;;5.18;90.45;102034.59;5036472;28;20497;-76
2021/10/18 04:48:24;;;;;;;23.23;15.02;;;;;;;5.11;90.49;102027.34;5008661;28;20030;-76
2021/10/18 04:50:50;;;;;;;24.38;13.77;;;;;;;5.03;90.93;102035.50;5011015;28;20072;-76
2021/10/18 04:53:15;;;;;;;25.02;14.23;;;;;;;5.05;90.96;102036.25;5029449;28;20471;-76
2021/10/18 04:55:41;;;;;;;22.55;13.70;;;;;;;5.01;90.58;102035.59;4998673;28;20038;-76
2021/10/18 04:58:06;;;;;;;31.40;15.30;;;;;;;5.07;90.33;102036.97;5003113;28;20225;-76
2021/10/18 05:00:35;;;;;;;24.83;13.02;;;;;;;5.14;90.05;102040.00;4988471;28;20442;-76
2021/10/18 05:03:01;;;;;;;22.90;11.95;;;;;;;5.04;89.56;102048.25;5014256;28;20059;-76
2021/10/18 05:05:27;;;;;;;23.60;12.93;;;;;;;4.97;90.11;102048.69;5008326;28;20065;-76
2021/10/18 05:08:03;;;;;;;21.83;11.95;;;;;;;5.06;90.28;102045.59;5004585;28;20494;-76
2021/10/18 05:10:28;;;;;;;19.85;11.30;;;;;;;5.08;90.06;102043.75;5003683;28;20037;-76
2021/10/18 05:12:54;;;;;;;22.67;12.45;;;;;;;5.06;90.04;102045.59;5004451;28;20088;-76
2021/10/18 05:15:20;;;;;;;26.25;12.50;;;;;;;5.13;90.07;102036.59;5009617;28;20043;-76
2021/10/18 05:17:45;;;;;;;28.73;12.27;;;;;;;5.10;89.87;102034.22;5006969;28;20038;-76
2021/10/18 05:20:11;;;;;;;18.08;10.52;;;;;;;5.10;90.37;102035.97;4995206;28;20118;-76
2021/10/18 05:22:36;;;;;;;22.00;11.23;;;;;;;5.09;90.62;102035.16;5008884;28;20387;-76
2021/10/18 05:25:02;;;;;;;22.20;12.02;;;;;;;5.03;91.08;102030.38;5007788;28;20511;-76
2021/10/18 05:27:28;;;;;;;21.45;11.25;;;;;;;5.13;90.87;102044.31;5009083;28;20034;-76
2021/10/18 05:29:54;;;;;;;25.52;12.07;;;;;;;5.06;90.66;102041.28;5017334;28;20087;-76
2021/10/18 05:32:19;;;;;;;18.50;12.07;;;;;;;4.94;90.86;102046.31;5013043;28;20480;-76
2021/10/18 05:34:45;;;;;;;26.15;12.98;;;;;;;4.92;91.29;102041.25;5012303;28;20033;-76
2021/10/18 05:37:11;;;;;;;26.00;13.73;;;;;;;4.95;91.22;102045.38;5015590;28;20176;-76
2021/10/18 05:39:36;;;;;;;22.33;13.10;;;;;;;4.97;91.61;102052.13;5025140;28;20520;-76
2021/10/18 05:42:02;;;;;;;24.45;12.18;;;;;;;4.95;90.81;102046.22;5014032;28;20038;-76
2021/10/18 05:44:27;;;;;;;21.45;13.45;;;;;;;5.03;90.86;102046.63;5012401;28;20533;-76
2021/10/18 05:46:53;;;;;;;20.55;12.00;;;;;;;5.02;90.52;102041.56;5014210;28;20038;-76
2021/10/18 05:49:18;;;;;;;22.33;12.15;;;;;;;5.00;90.60;102046.78;5011282;28;20037;-76
2021/10/18 05:51:44;;;;;;;23.95;12.40;;;;;;;4.88;90.93;102038.03;5015269;28;20026;-76
2021/10/18 05:54:09;;;;;;;20.85;11.77;;;;;;;5.02;91.06;102031.28;4995089;28;20073;-76
2021/10/18 05:56:35;;;;;;;21.25;10.88;;;;;;;4.96;91.16;102031.63;5011991;28;20392;-75
2021/10/18 05:59:00;;;;;;;23.33;11.73;;;;;;;4.93;90.90;102036.94;5022793;28;20045;-76
2021/10/18 06:01:26;;;;;;;20.70;11.80;;;;;;;4.89;91.56;102041.44;5017509;28;20502;-75
2021/10/18 06:03:51;;;;;;;24.00;11.63;;;;;;;5.00;91.19;102039.06;5010431;28;20101;-76
2021/10/18 06:06:17;;;;;;;23.55;11.20;;;;;;;4.97;90.80;102046.13;5012251;28;20034;-76
2021/10/18 06:08:43;;;;;;;21.48;11.77;;;;;;;5.03;90.87;102040.66;5009076;28;20034;-76
2021/10/18 06:11:10;;;;;;;23.15;11.68;;;;;;;4.96;90.93;102047.88;4992700;28;20061;-76
2021/10/18 06:13:35;;;;;;;20.63;11.07;;;;;;;4.94;91.10;102047.16;4993607;28;20033;-76
2021/10/18 06:16:01;;;;;;;21.02;10.43;;;;;;;4.91;91.37;102051.63;5009070;28;20376;-75
2021/10/18 06:18:26;;;;;;;26.67;11.57;;;;;;;5.11;91.48;102050.50;5016969;28;20038;-75
2021/10/18 06:20:54;;;;;;;18.10;10.38;;;;;;;5.06;91.26;102055.88;5013452;28;20030;-76
2021/10/18 06:23:21;;;;;;;22.88;11.32;;;;;;;5.11;91.04;102050.50;5000425;28;20475;-76
2021/10/18 06:25:47;;;;;;;15.20;9.70;;;;;;;5.09;91.37;102055.72;5009612;28;20133;-76
2021/10/18 06:28:14;;;;;;;17.60;10.40;;;;;;;5.11;91.14;102058.19;5000500;28;20124;-76
2021/10/18 06:30:39;;;;;;;21.05;11.95;;;;;;;5.19;91.32;102058.56;5010033;28;20060;-75
2021/10/18 06:33:05;;;;;;;21.92;10.73;;;;;;;5.17;90.95;102050.13;5011884;28;20034;-76
2021/10/18 06:35:35;;;;;;;19.35;11.23;;;;;;;5.23;91.11;102058.28;5015006;28;20122;-76
2021/10/18 06:38:01;;;;;;;17.98;10.90;;;;;;;5.23;90.58;102060.03;5011573;28;20068;-77
2021/10/18 06:40:27;;;;;;;19.02;10.75;;;;;;;5.25;91.08;102061.63;5033263;28;20449;-76
2021/10/18 06:42:52;;;;;;;19.48;11.52;;;;;;;5.38;91.11;102059.13;5014426;28;20044;-75
2021/10/18 06:45:19;;;;;;;17.95;9.70;;;;;;;5.42;90.24;102068.31;5016707;28;20017;-76
2021/10/18 06:47:44;;;;;;;22.85;11.50;;;;;;;5.33;90.79;102068.88;4993137;28;20057;-76
2021/10/18 06:50:11;;;;;;;20.20;11.00;;;;;;;5.45;90.84;102075.84;5023982;28;20038;-75
2021/10/18 06:52:43;;;;;;;23.88;11.10;;;;;;;5.70;89.84;102073.56;5015400;28;20041;-75
2021/10/18 06:55:11;;;;;;;20.10;11.23;;;;;;;5.76;89.97;102084.28;5014806;28;20046;-76
2021/10/18 06:57:38;;;;;;;22.00;11.70;;;;;;;5.84;89.60;102082.09;4992936;28;20025;-76
2021/10/18 07:00:04;;;;;;;18.92;10.40;;;;;;;5.83;89.22;102083.00;5009496;28;20026;-74
2021/10/18 07:02:30;;;;;;;18.70;10.63;;;;;;;5.82;89.30;102078.78;5007373;28;20045;-75
2021/10/18 07:04:55;;;;;;;20.98;11.20;;;;;;;5.89;89.78;102076.66;5012604;28;20033;-75
2021/10/18 07:07:21;;;;;;;19.17;11.23;;;;;;;5.98;89.26;102077.88;5008072;28;20029;-75
2021/10/18 07:09:47;;;;;;;18.17;10.63;;;;;;;6.07;88.93;102076.50;5016304;28;20482;-76
2021/10/18 07:12:13;;;;;;;21.13;11.38;;;;;;;6.02;89.25;102072.44;5016508;28;20468;-76
2021/10/18 07:14:38;;;;;;;22.13;11.68;;;;;;;6.08;89.26;102071.22;5009737;28;20035;-75
2021/10/18 07:17:04;;;;;;;22.77;11.63;;;;;;;6.17;89.48;102069.84;5013228;28;20061;-74
2021/10/18 07:19:29;;;;;;;19.77;10.95;;;;;;;6.28;88.92;102064.00;5009685;28;20034;-75
2021/10/18 07:21:55;;;;;;;21.20;12.07;;;;;;;6.32;89.22;102074.00;5007048;28;20022;-75
2021/10/18 07:24:21;;;;;;;20.13;12.40;;;;;;;6.58;88.74;102074.94;5005359;28;20022;-75
2021/10/18 07:26:50;;;;;;;20.73;12.98;;;;;;;6.75;87.78;102078.19;4994061;28;20045;-76
2021/10/18 07:29:17;;;;;;;24.70;12.98;;;;;;;6.90;87.33;102074.59;5011443;28;20022;-75
2021/10/18 07:31:42;;;;;;;19.48;12.70;;;;;;;6.96;86.95;102076.75;5009656;28;20552;-76
2021/10/18 07:34:14;;;;;;;21.35;13.35;;;;;;;7.00;86.90;102074.81;5014846;28;20064;-75
2021/10/18 07:36:51;;;;;;;23.77;12.73;;;;;;;7.12;86.66;102081.75;5013983;28;20037;-76
2021/10/18 07:39:25;;;;;;;23.02;11.98;;;;;;;7.15;86.32;102083.28;5003744;28;20033;-73
2021/10/18 07:41:55;;;;;;;23.35;12.00;;;;;;;7.22;86.10;102079.38;5019606;28;20037;-75
2021/10/18 07:44:22;;;;;;;23.58;11.07;;;;;;;7.29;85.90;102082.34;5007617;28;20018;-75
2021/10/18 07:46:47;;;;;;;27.40;13.65;;;;;;;7.43;85.72;102084.03;5010920;28;20053;-74
2021/10/18 07:49:13;;;;;;;21.75;11.75;;;;;;;7.57;84.58;102083.88;5018237;28;20072;-75
2021/10/18 07:51:39;;;;;;;21.52;11.75;;;;;;;7.82;83.84;102092.53;5010864;28;20113;-75
2021/10/18 07:54:04;;;;;;;20.83;11.48;;;;;;;7.98;83.12;102093.94;5008558;28;20069;-75
2021/10/18 07:56:32;;;;;;;20.38;10.82;;;;;;;8.19;82.17;102099.38;5012504;28;20036;-75
2021/10/18 07:58:58;;;;;;;22.20;10.48;;;;;;;8.55;81.16;102091.69;5010860;28;20502;-75
2021/10/18 08:01:23;;;;;;;19.35;10.30;;;;;;;8.63;79.73;102091.16;5011824;28;20038;-75
2021/10/18 08:03:49;;;;;;;20.00;10.43;;;;;;;8.83;79.55;102093.06;5008954;28;20120;-74
2021/10/18 08:06:14;;;;;;;16.73;10.25;;;;;;;8.99;78.45;102090.19;5007973;28;20237;-74
2021/10/18 08:08:44;;;;;;;18.80;11.00;;;;;;;9.20;78.38;102092.13;4992046;28;20032;-75
2021/10/18 08:11:10;;;;;;;21.75;11.50;;;;;;;9.30;77.38;102090.47;5015879;28;20042;-74
2021/10/18 08:13:36;;;;;;;25.75;11.90;;;;;;;9.44;76.80;102087.66;5011104;28;20369;-75
2021/10/18 08:16:01;;;;;;;19.00;9.98;;;;;;;9.49;76.57;102084.72;5021340;28;20049;-74
2021/10/18 08:18:27;;;;;;;18.70;10.52;;;;;;;9.46;76.62;102087.56;5014938;28;20088;-76
2021/10/18 08:20:52;;;;;;;22.52;10.38;;;;;;;9.45;76.78;102094.47;5013132;28;20060;-75
2021/10/18 08:23:18;;;;;;;19.55;11.20;;;;;;;9.71;76.14;102083.91;5008894;28;20033;-75
2021/10/18 08:25:43;;;;;;;15.75;10.85;;;;;;;9.53;76.65;102084.38;5013541;28;20037;-75
2021/10/18 08:28:09;;;;;;;20.95;11.60;;;;;;;9.68;76.39;102094.50;5016175;28;20042;-74
2021/10/18 08:30:36;;;;;;;20.90;11.57;;;;;;;9.57;76.49;102099.66;5017048;28;20072;-75
2021/10/18 08:33:01;;;;;;;23.75;12.10;;;;;;;9.57;77.12;102097.06;5008403;28;20548;-75
2021/10/18 08:35:27;;;;;;;20.13;11.90;;;;;;;9.57;77.62;102087.56;5014907;28;20036;-75
2021/10/18 08:40:43;;;;;;;20.52;11.52;;;;;;;10.16;75.52;102083.00;5014456;28;20034;-76
2021/10/18 08:44:14;;;;;;;22.10;11.23;;;;;;;10.29;74.98;102078.50;5012961;28;20041;-76
2021/10/18 08:45:54;;;;;;;27.17;11.45;;;;;;;10.50;74.31;102079.38;5002689;28;20503;-75
2021/10/18 08:48:20;;;;;;;20.85;11.48;;;;;;;10.68;73.87;102079.66;5008834;28;20133;-75
2021/10/18 08:50:47;;;;;;;20.42;11.00;;;;;;;10.78;73.30;102090.09;5014954;28;20117;-75
2021/10/18 08:53:13;;;;;;;21.33;11.65;;;;;;;10.90;72.76;102077.88;5009236;28;20030;-75
2021/10/18 08:55:40;;;;;;;22.00;10.98;;;;;;;10.90;72.72;102068.31;5019396;28;20044;-74
2021/10/18 08:58:06;;;;;;;21.30;11.50;;;;;;;10.79;73.52;102080.53;5011560;28;20041;-75
2021/10/18 09:00:51;;;;;;;20.90;12.10;;;;;;;10.73;73.57;102075.88;5013084;28;20487;-75
2021/10/18 09:03:25;;;;;;;21.85;11.82;;;;;;;10.67;74.45;102070.22;5010942;28;20029;-75
2021/10/18 09:06:07;;;;;;;21.95;12.30;;;;;;;10.67;74.37;102067.63;5030942;28;20465;-74
2021/10/18 09:08:42;;;;;;;21.35;12.48;;;;;;;10.65;74.42;102072.13;5011516;28;20037;-75
2021/10/18 09:11:16;;;;;;;25.15;11.88;;;;;;;10.74;74.35;102077.50;5011856;28;20471;-75
2021/10/18 09:13:56;;;;;;;22.65;12.18;;;;;;;10.73;74.37;102086.25;4986973;28;20407;-76
2021/10/18 09:16:22;;;;;;;24.02;11.55;;;;;;;10.66;75.30;102078.97;5015466;28;20375;-74
2021/10/18 09:18:57;;;;;;;22.23;12.02;;;;;;;10.84;75.08;102068.03;5014225;28;20608;-74
2021/10/18 09:21:27;;;;;;;23.67;12.10;;;;;;;10.88;74.68;102061.63;5016173;28;20049;-75
2021/10/18 09:23:53;;;;;;;27.13;12.18;;;;;;;11.00;74.78;102070.16;5009719;28;20034;-74
2021/10/18 09:26:23;;;;;;;22.48;12.23;;;;;;;10.86;74.23;102071.31;5010636;28;20034;-75
2021/10/18 09:28:54;;;;;;;27.98;12.05;;;;;;;10.73;74.71;102073.28;4992491;28;20060;-75
2021/10/18 09:31:20;;;;;;;23.45;12.45;;;;;;;10.79;74.99;102073.56;4997994;28;20049;-75
2021/10/18 09:33:57;;;;;;;22.02;12.95;;;;;;;10.88;75.16;102070.22;4993955;28;20116;-75
2021/10/18 09:36:32;;;;;;;22.83;12.35;;;;;;;10.95;75.25;102070.53;5015199;28;20099;-76
2021/10/18 09:39:10;;;;;;;26.13;13.80;;;;;;;11.15;73.78;102068.91;5016878;28;20502;-74
2021/10/18 09:41:36;;;;;;;26.30;15.32;;;;;;;11.14;73.70;102069.03;5018334;28;20375;-74
2021/10/18 09:44:09;;;;;;;25.67;15.15;;;;;;;11.22;74.08;102077.78;5017654;28;20057;-76
2021/10/18 09:46:39;;;;;;;28.27;16.20;;;;;;;11.25;73.99;102068.94;5019841;28;20034;-74
2021/10/18 10:52:41;;;;;;;25.58;12.63;;;;;;;12.63;69.31;102027.47;4965578;28;20034;-76
2021/10/18 10:55:47;;;;;;;27.45;13.10;;;;;;;12.72;68.99;102020.59;4992806;28;20038;-75
2021/10/18 10:58:35;;;;;;;20.50;12.35;;;;;;;12.70;69.41;102010.31;4978888;28;20062;-75
2021/10/18 11:01:02;;;;;;;23.92;12.23;;;;;;;12.73;69.65;102017.84;4967303;28;20042;-75
2021/10/18 11:03:30;;;;;;;20.70;12.05;;;;;;;12.79;68.99;102003.44;4995978;28;20390;-74
2021/10/18 11:05:57;;;;;;;21.05;12.15;;;;;;;12.71;70.54;102009.34;4983603;28;20057;-75
2021/10/18 11:08:29;;;;;;;25.58;11.98;;;;;;;12.76;69.59;102019.34;4967259;28;20486;-74
2021/10/18 11:10:55;;;;;;;26.45;12.80;;;;;;;12.98;69.13;102013.81;4980964;28;20034;-76
2021/10/18 11:13:20;;;;;;;26.70;12.90;;;;;;;12.85;69.49;102008.91;4946625;28;20450;-76
2021/10/18 11:15:46;;;;;;;22.55;12.20;;;;;;;12.98;69.49;102003.41;4980147;28;20399;-74
2021/10/18 11:18:15;;;;;;;29.38;12.75;;;;;;;12.99;68.86;101999.81;5005278;28;20069;-74
2021/10/18 11:20:40;;;;;;;26.50;13.55;;;;;;;13.07;69.27;102004.31;4981408;28;20046;-74
2021/10/18 11:23:06;;;;;;;19.80;11.35;;;;;;;13.11;69.80;101999.63;4980440;28;20038;-75
2021/10/18 11:25:36;;;;;;;25.85;12.88;;;;;;;13.25;68.81;101996.56;4981392;28;20038;-74
2021/10/18 11:28:05;;;;;;;22.30;12.65;;;;;;;13.40;68.70;102000.34;4965381;28;20042;-74
2021/10/18 11:30:31;;;;;;;23.55;11.50;;;;;;;13.37;67.87;102002.44;4980923;28;20034;-74
2021/10/18 11:33:03;;;;;;;22.23;11.93;;;;;;;13.41;68.72;101994.19;4963427;28;20549;-75
2021/10/18 11:35:32;;;;;;;23.10;12.38;;;;;;;13.58;68.47;101995.19;4980716;28;20033;-74
2021/10/18 11:38:05;;;;;;;20.10;11.93;;;;;;;13.64;68.85;101996.41;4989690;28;20050;-76
2021/10/18 11:40:39;;;;;;;23.35;12.68;;;;;;;13.70;67.53;102005.41;4971829;28;20039;-75
2021/10/18 11:43:19;;;;;;;22.48;11.65;;;;;;;13.80;67.45;102004.34;4993325;28;20094;-75
2021/10/18 11:45:48;;;;;;;20.88;11.45;;;;;;;13.82;67.08;101999.00;4979889;28;20116;-74
2021/10/18 11:48:19;;;;;;;23.88;12.32;;;;;;;13.89;66.69;101999.25;4993757;28;20026;-77
2021/10/18 11:50:46;;;;;;;24.63;11.60;;;;;;;13.84;66.43;101994.47;4989635;28;20021;-76
2021/10/18 11:53:18;;;;;;;20.63;11.50;;;;;;;13.72;66.80;101985.22;4986513;28;20386;-75
2021/10/18 11:55:50;;;;;;;29.15;12.93;;;;;;;13.70;67.15;101979.34;4954353;28;20100;-75
2021/10/18 11:58:21;;;;;;;23.23;13.07;;;;;;;13.87;66.91;101969.91;4986353;28;20030;-75
2021/10/18 12:00:47;;;;;;;27.70;11.60;;;;;;;13.90;66.75;101956.53;4970176;28;20467;-76
2021/10/18 12:03:17;;;;;;;18.90;11.43;;;;;;;13.95;67.41;101949.09;4969322;28;20185;-77
2021/10/18 12:05:46;;;;;;;22.95;11.23;;;;;;;14.02;67.53;101939.72;4999982;28;20026;-75
2021/10/18 12:08:14;;;;;;;21.98;11.48;;;;;;;14.03;66.79;101936.13;4983630;28;20038;-75
2021/10/18 12:10:42;;;;;;;18.25;10.68;;;;;;;13.91;66.74;101927.72;4985213;28;20046;-75
2021/10/18 12:13:24;;;;;;;22.63;11.10;;;;;;;14.17;65.80;101919.94;4989056;28;20044;-77
2021/10/18 12:16:05;;;;;;;19.27;11.57;;;;;;;14.06;67.05;101912.34;4988064;28;20037;-75
2021/10/18 12:18:36;;;;;;;22.23;11.70;;;;;;;14.14;66.20;101917.63;4984926;28;20069;-76
2021/10/18 12:21:10;;;;;;;17.00;10.00;;;;;;;14.20;64.29;101911.81;4985453;28;20045;-76
2021/10/18 12:23:45;;;;;;;21.70;10.27;;;;;;;14.19;64.92;101898.91;4985684;28;20545;-75